sensor_id;sensor_type;location;lat;lon;timestamp;temperature;humidity
1702;DHT22;848;48.354;10.064;2023-02-03T00:00:08;5.20;99.90
1702;DHT22;848;48.354;10.064;2023-02-03T00:02:35;5.20;99.90
1702;DHT22;848;48.354;10.064;2023-02-03T00:05:03;5.30;99.90
1702;DHT22;848;48.354;10.064;2023-02-03T00:07:30;5.30;99.90
1702;DHT22;848;48.354;10.064;2023-02-03T00:09:57;5.20;99.90
1702;DHT22;848;48.354;10.064;2023-02-03T00:12:25;5.30;99.90
1702;DHT22;848;48.354;10.064;2023-02-03T00:14:52;5.20;99.90
1702;DHT22;848;48.354;10.064;2023-02-03T00:17:19;5.30;99.90
1702;DHT22;848;48.354;10.064;2023-02-03T00:19:46;5.20;99.90
1702;DHT22;848;48.354;10.064;2023-02-03T00:22:14;5.10;99.90
1702;DHT22;848;48.354;10.064;2023-02-03T00:24:40;5.20;99.90
1702;DHT22;848;48.354;10.064;2023-02-03T00:27:09;5.20;99.90
1702;DHT22;848;48.354;10.064;2023-02-03T00:29:38;5.20;99.90
1702;DHT22;848;48.354;10.064;2023-02-03T00:32:05;5.20;99.90
1702;DHT22;848;48.354;10.064;2023-02-03T00:34:31;5.20;99.90
1702;DHT22;848;48.354;10.064;2023-02-03T00:36:58;5.30;99.90
1702;DHT22;848;48.354;10.064;2023-02-03T00:39:25;5.20;99.90
1702;DHT22;848;48.354;10.064;2023-02-03T00:41:52;5.30;99.90
1702;DHT22;848;48.354;10.064;2023-02-03T00:44:19;5.10;99.90
1702;DHT22;848;48.354;10.064;2023-02-03T00:46:47;5.10;99.90
1702;DHT22;848;48.354;10.064;2023-02-03T00:49:14;5.10;99.90
1702;DHT22;848;48.354;10.064;2023-02-03T00:51:41;5.10;99.90
1702;DHT22;848;48.354;10.064;2023-02-03T00:54:08;5.10;99.90
1702;DHT22;848;48.354;10.064;2023-02-03T00:56:35;5.10;99.90
1702;DHT22;848;48.354;10.064;2023-02-03T00:59:02;5.10;99.90
1702;DHT22;848;48.354;10.064;2023-02-03T01:01:29;5.20;99.90
1702;DHT22;848;48.354;10.064;2023-02-03T01:03:57;5.20;99.90
1702;DHT22;848;48.354;10.064;2023-02-03T01:06:25;5.20;99.90
1702;DHT22;848;48.354;10.064;2023-02-03T01:08:52;5.20;99.90
1702;DHT22;848;48.354;10.064;2023-02-03T01:11:21;5.20;99.90
1702;DHT22;848;48.354;10.064;2023-02-03T01:13:48;5.20;99.90
1702;DHT22;848;48.354;10.064;2023-02-03T01:16:18;5.30;99.90
1702;DHT22;848;48.354;10.064;2023-02-03T01:18:46;5.30;99.90
1702;DHT22;848;48.354;10.064;2023-02-03T01:21:17;5.30;99.90
1702;DHT22;848;48.354;10.064;2023-02-03T01:23:45;5.30;99.90
1702;DHT22;848;48.354;10.064;2023-02-03T01:26:14;5.30;99.90
1702;DHT22;848;48.354;10.064;2023-02-03T01:28:41;5.30;99.90
1702;DHT22;848;48.354;10.064;2023-02-03T01:31:09;5.30;99.90
1702;DHT22;848;48.354;10.064;2023-02-03T01:33:37;5.30;99.90
1702;DHT22;848;48.354;10.064;2023-02-03T01:36:06;5.30;99.90
1702;DHT22;848;48.354;10.064;2023-02-03T01:38:34;5.20;99.90
1702;DHT22;848;48.354;10.064;2023-02-03T01:41:02;5.30;99.90
1702;DHT22;848;48.354;10.064;2023-02-03T01:43:31;5.40;99.90
1702;DHT22;848;48.354;10.064;2023-02-03T01:46:00;5.30;99.90
1702;DHT22;848;48.354;10.064;2023-02-03T01:48:28;5.40;99.90
1702;DHT22;848;48.354;10.064;2023-02-03T01:50:57;5.30;99.90
1702;DHT22;848;48.354;10.064;2023-02-03T01:53:26;5.30;99.90
1702;DHT22;848;48.354;10.064;2023-02-03T01:55:55;5.30;99.90
1702;DHT22;848;48.354;10.064;2023-02-03T01:58:29;5.20;99.90
1702;DHT22;848;48.354;10.064;2023-02-03T02:00:59;5.20;99.90
1702;DHT22;848;48.354;10.064;2023-02-03T02:03:31;5.20;99.90
1702;DHT22;848;48.354;10.064;2023-02-03T02:06:03;5.20;99.90
1702;DHT22;848;48.354;10.064;2023-02-03T02:08:30;5.20;99.90
1702;DHT22;848;48.354;10.064;2023-02-03T02:10:59;5.20;99.90
1702;DHT22;848;48.354;10.064;2023-02-03T02:13:31;5.20;99.90
1702;DHT22;848;48.354;10.064;2023-02-03T02:16:05;5.20;99.90
1702;DHT22;848;48.354;10.064;2023-02-03T02:18:43;5.20;99.90
1702;DHT22;848;48.354;10.064;2023-02-03T02:21:39;5.20;99.90
1702;DHT22;848;48.354;10.064;2023-02-03T02:24:40;5.20;99.90
1702;DHT22;848;48.354;10.064;2023-02-03T02:27:25;5.30;99.90
1702;DHT22;848;48.354;10.064;2023-02-03T02:33:09;5.30;99.90
1702;DHT22;848;48.354;10.064;2023-02-03T02:35:46;5.50;99.90
1702;DHT22;848;48.354;10.064;2023-02-03T02:38:24;5.30;99.90
1702;DHT22;848;48.354;10.064;2023-02-03T02:41:03;5.30;99.90
1702;DHT22;848;48.354;10.064;2023-02-03T02:43:38;5.40;99.90
1702;DHT22;848;48.354;10.064;2023-02-03T02:46:09;5.30;99.90
1702;DHT22;848;48.354;10.064;2023-02-03T02:48:42;5.50;99.90
1702;DHT22;848;48.354;10.064;2023-02-03T02:51:13;5.40;99.90
1702;DHT22;848;48.354;10.064;2023-02-03T02:53:44;5.30;99.90
1702;DHT22;848;48.354;10.064;2023-02-03T02:56:13;5.30;99.90
1702;DHT22;848;48.354;10.064;2023-02-03T02:58:44;5.30;99.90
1702;DHT22;848;48.354;10.064;2023-02-03T03:01:15;5.40;99.90
1702;DHT22;848;48.354;10.064;2023-02-03T03:03:45;5.40;99.90
1702;DHT22;848;48.354;10.064;2023-02-03T03:06:15;5.40;99.90
1702;DHT22;848;48.354;10.064;2023-02-03T03:08:47;5.40;99.90
1702;DHT22;848;48.354;10.064;2023-02-03T03:11:16;5.40;99.90
1702;DHT22;848;48.354;10.064;2023-02-03T03:13:48;5.30;99.90
1702;DHT22;848;48.354;10.064;2023-02-03T03:16:17;5.30;99.90
1702;DHT22;848;48.354;10.064;2023-02-03T03:18:48;5.30;99.90
1702;DHT22;848;48.354;10.064;2023-02-03T03:21:20;5.10;99.90
1702;DHT22;848;48.354;10.064;2023-02-03T03:23:49;5.10;99.90
1702;DHT22;848;48.354;10.064;2023-02-03T03:26:22;5.10;99.90
1702;DHT22;848;48.354;10.064;2023-02-03T03:28:57;5.00;99.90
1702;DHT22;848;48.354;10.064;2023-02-03T03:31:26;5.00;99.90
1702;DHT22;848;48.354;10.064;2023-02-03T03:33:54;5.00;99.90
1702;DHT22;848;48.354;10.064;2023-02-03T03:36:24;5.00;99.90
1702;DHT22;848;48.354;10.064;2023-02-03T03:38:57;5.00;99.90
1702;DHT22;848;48.354;10.064;2023-02-03T03:41:32;5.10;99.90
1702;DHT22;848;48.354;10.064;2023-02-03T03:44:02;5.10;99.90
1702;DHT22;848;48.354;10.064;2023-02-03T03:46:34;5.20;99.90
1702;DHT22;848;48.354;10.064;2023-02-03T03:49:07;5.00;99.90
1702;DHT22;848;48.354;10.064;2023-02-03T03:51:37;5.10;99.90
1702;DHT22;848;48.354;10.064;2023-02-03T03:54:08;5.10;99.90
1702;DHT22;848;48.354;10.064;2023-02-03T03:56:40;5.20;99.90
1702;DHT22;848;48.354;10.064;2023-02-03T03:59:09;5.40;99.90
1702;DHT22;848;48.354;10.064;2023-02-03T04:01:38;5.20;99.90
1702;DHT22;848;48.354;10.064;2023-02-03T04:04:09;5.20;99.90
1702;DHT22;848;48.354;10.064;2023-02-03T04:06:37;5.20;99.90
1702;DHT22;848;48.354;10.064;2023-02-03T04:09:04;5.40;99.90
1702;DHT22;848;48.354;10.064;2023-02-03T04:11:32;5.20;99.90
1702;DHT22;848;48.354;10.064;2023-02-03T04:14:24;5.30;99.90
1702;DHT22;848;48.354;10.064;2023-02-03T04:16:51;5.20;99.90
1702;DHT22;848;48.354;10.064;2023-02-03T04:19:19;5.30;99.90
1702;DHT22;848;48.354;10.064;2023-02-03T04:21:46;5.20;99.90
1702;DHT22;848;48.354;10.064;2023-02-03T04:24:13;5.20;99.90
1702;DHT22;848;48.354;10.064;2023-02-03T04:26:40;5.30;99.90
1702;DHT22;848;48.354;10.064;2023-02-03T04:29:07;5.30;99.90
1702;DHT22;848;48.354;10.064;2023-02-03T04:31:34;5.30;99.90
1702;DHT22;848;48.354;10.064;2023-02-03T04:34:01;5.30;99.90
1702;DHT22;848;48.354;10.064;2023-02-03T04:36:29;5.20;99.90
1702;DHT22;848;48.354;10.064;2023-02-03T04:38:56;5.20;99.90
1702;DHT22;848;48.354;10.064;2023-02-03T04:41:23;5.20;99.90
1702;DHT22;848;48.354;10.064;2023-02-03T04:43:49;5.20;99.90
1702;DHT22;848;48.354;10.064;2023-02-03T04:46:16;5.10;99.90
1702;DHT22;848;48.354;10.064;2023-02-03T04:48:44;5.10;99.90
1702;DHT22;848;48.354;10.064;2023-02-03T04:51:11;5.10;99.90
1702;DHT22;848;48.354;10.064;2023-02-03T04:53:39;5.10;99.90
1702;DHT22;848;48.354;10.064;2023-02-03T04:56:06;5.20;99.90
1702;DHT22;848;48.354;10.064;2023-02-03T04:58:33;5.10;99.90
1702;DHT22;848;48.354;10.064;2023-02-03T05:01:05;5.20;99.90
1702;DHT22;848;48.354;10.064;2023-02-03T05:03:33;5.20;99.90
1702;DHT22;848;48.354;10.064;2023-02-03T05:06:00;5.20;99.90
1702;DHT22;848;48.354;10.064;2023-02-03T05:08:27;5.10;99.90
1702;DHT22;848;48.354;10.064;2023-02-03T05:10:56;5.10;99.90
1702;DHT22;848;48.354;10.064;2023-02-03T05:13:23;5.10;99.90
1702;DHT22;848;48.354;10.064;2023-02-03T05:15:50;5.10;99.90
1702;DHT22;848;48.354;10.064;2023-02-03T05:18:17;5.10;99.90
1702;DHT22;848;48.354;10.064;2023-02-03T05:20:44;5.20;99.90
1702;DHT22;848;48.354;10.064;2023-02-03T05:23:11;5.20;99.90
1702;DHT22;848;48.354;10.064;2023-02-03T05:25:38;5.20;99.90
1702;DHT22;848;48.354;10.064;2023-02-03T05:28:06;5.20;99.90
1702;DHT22;848;48.354;10.064;2023-02-03T05:30:33;5.20;99.90
1702;DHT22;848;48.354;10.064;2023-02-03T05:32:59;5.20;99.90
1702;DHT22;848;48.354;10.064;2023-02-03T05:35:26;5.20;99.90
1702;DHT22;848;48.354;10.064;2023-02-03T05:37:53;5.20;99.90
1702;DHT22;848;48.354;10.064;2023-02-03T05:40:20;5.20;99.90
1702;DHT22;848;48.354;10.064;2023-02-03T05:43:06;5.20;99.90
1702;DHT22;848;48.354;10.064;2023-02-03T05:45:33;5.20;99.90
1702;DHT22;848;48.354;10.064;2023-02-03T05:48:00;5.20;99.90
1702;DHT22;848;48.354;10.064;2023-02-03T05:50:28;5.20;99.90
1702;DHT22;848;48.354;10.064;2023-02-03T05:52:57;5.10;99.90
1702;DHT22;848;48.354;10.064;2023-02-03T05:55:25;5.10;99.90
1702;DHT22;848;48.354;10.064;2023-02-03T05:57:52;5.10;99.90
1702;DHT22;848;48.354;10.064;2023-02-03T06:00:21;5.00;99.90
1702;DHT22;848;48.354;10.064;2023-02-03T06:02:50;5.00;99.90
1702;DHT22;848;48.354;10.064;2023-02-03T06:05:18;5.00;99.90
1702;DHT22;848;48.354;10.064;2023-02-03T06:07:47;5.00;99.90
1702;DHT22;848;48.354;10.064;2023-02-03T06:10:15;5.00;99.90
1702;DHT22;848;48.354;10.064;2023-02-03T06:12:42;5.00;99.90
1702;DHT22;848;48.354;10.064;2023-02-03T06:15:10;4.90;99.90
1702;DHT22;848;48.354;10.064;2023-02-03T06:17:38;5.00;99.90
1702;DHT22;848;48.354;10.064;2023-02-03T06:20:07;4.90;99.90
1702;DHT22;848;48.354;10.064;2023-02-03T06:22:34;4.90;99.90
1702;DHT22;848;48.354;10.064;2023-02-03T06:25:01;4.90;99.90
1702;DHT22;848;48.354;10.064;2023-02-03T06:27:29;4.90;99.90
1702;DHT22;848;48.354;10.064;2023-02-03T06:29:56;4.90;99.90
1702;DHT22;848;48.354;10.064;2023-02-03T06:32:22;4.90;99.90
1702;DHT22;848;48.354;10.064;2023-02-03T06:34:51;5.00;99.90
1702;DHT22;848;48.354;10.064;2023-02-03T06:37:18;4.90;99.90
1702;DHT22;848;48.354;10.064;2023-02-03T06:39:44;4.90;99.90
1702;DHT22;848;48.354;10.064;2023-02-03T06:42:11;4.90;99.90
1702;DHT22;848;48.354;10.064;2023-02-03T06:44:39;4.90;99.90
1702;DHT22;848;48.354;10.064;2023-02-03T06:47:06;5.00;99.90
1702;DHT22;848;48.354;10.064;2023-02-03T06:49:33;4.90;99.90
1702;DHT22;848;48.354;10.064;2023-02-03T06:52:01;4.80;99.90
1702;DHT22;848;48.354;10.064;2023-02-03T06:54:28;4.80;99.90
1702;DHT22;848;48.354;10.064;2023-02-03T06:56:55;4.80;99.90
1702;DHT22;848;48.354;10.064;2023-02-03T06:59:22;4.80;99.90
1702;DHT22;848;48.354;10.064;2023-02-03T07:01:49;4.80;99.90
1702;DHT22;848;48.354;10.064;2023-02-03T07:04:16;4.70;99.90
1702;DHT22;848;48.354;10.064;2023-02-03T07:06:42;4.70;99.90
1702;DHT22;848;48.354;10.064;2023-02-03T07:09:11;4.80;99.90
1702;DHT22;848;48.354;10.064;2023-02-03T07:11:38;4.70;99.90
1702;DHT22;848;48.354;10.064;2023-02-03T07:14:05;4.70;99.90
1702;DHT22;848;48.354;10.064;2023-02-03T07:16:31;4.70;99.90
1702;DHT22;848;48.354;10.064;2023-02-03T07:19:01;4.60;99.90
1702;DHT22;848;48.354;10.064;2023-02-03T07:21:27;4.60;99.90
1702;DHT22;848;48.354;10.064;2023-02-03T07:23:54;4.60;99.90
1702;DHT22;848;48.354;10.064;2023-02-03T07:26:23;4.60;99.90
1702;DHT22;848;48.354;10.064;2023-02-03T07:28:51;4.70;99.90
1702;DHT22;848;48.354;10.064;2023-02-03T07:31:19;4.70;99.90
1702;DHT22;848;48.354;10.064;2023-02-03T07:33:45;4.90;99.90
1702;DHT22;848;48.354;10.064;2023-02-03T07:36:13;4.80;99.90
1702;DHT22;848;48.354;10.064;2023-02-03T07:38:40;4.80;99.90
1702;DHT22;848;48.354;10.064;2023-02-03T07:41:07;4.80;99.90
1702;DHT22;848;48.354;10.064;2023-02-03T07:43:35;4.70;99.90
1702;DHT22;848;48.354;10.064;2023-02-03T07:46:02;4.80;99.90
1702;DHT22;848;48.354;10.064;2023-02-03T07:48:29;4.80;99.90
1702;DHT22;848;48.354;10.064;2023-02-03T07:50:56;4.80;99.90
1702;DHT22;848;48.354;10.064;2023-02-03T07:53:23;4.80;99.90
1702;DHT22;848;48.354;10.064;2023-02-03T07:55:50;4.80;99.90
1702;DHT22;848;48.354;10.064;2023-02-03T07:58:17;4.70;99.90
1702;DHT22;848;48.354;10.064;2023-02-03T08:00:45;4.80;99.90
1702;DHT22;848;48.354;10.064;2023-02-03T08:03:12;4.80;99.90
1702;DHT22;848;48.354;10.064;2023-02-03T08:05:39;4.80;99.90
1702;DHT22;848;48.354;10.064;2023-02-03T08:08:05;5.00;99.90
1702;DHT22;848;48.354;10.064;2023-02-03T08:10:32;4.80;99.90
1702;DHT22;848;48.354;10.064;2023-02-03T08:12:59;4.80;99.90
1702;DHT22;848;48.354;10.064;2023-02-03T08:15:26;4.80;99.90
1702;DHT22;848;48.354;10.064;2023-02-03T08:17:54;4.90;99.90
1702;DHT22;848;48.354;10.064;2023-02-03T08:20:21;4.90;99.90
1702;DHT22;848;48.354;10.064;2023-02-03T08:22:48;4.90;99.90
1702;DHT22;848;48.354;10.064;2023-02-03T08:25:15;4.90;99.90
1702;DHT22;848;48.354;10.064;2023-02-03T08:27:42;4.90;99.90
1702;DHT22;848;48.354;10.064;2023-02-03T08:30:12;4.90;99.90
1702;DHT22;848;48.354;10.064;2023-02-03T08:32:39;5.00;99.90
1702;DHT22;848;48.354;10.064;2023-02-03T08:35:08;5.00;99.90
1702;DHT22;848;48.354;10.064;2023-02-03T08:37:35;5.00;99.90
1702;DHT22;848;48.354;10.064;2023-02-03T08:40:02;5.20;99.90
1702;DHT22;848;48.354;10.064;2023-02-03T08:42:31;5.10;99.90
1702;DHT22;848;48.354;10.064;2023-02-03T08:44:58;5.10;99.90
1702;DHT22;848;48.354;10.064;2023-02-03T08:47:25;5.00;99.90
1702;DHT22;848;48.354;10.064;2023-02-03T08:49:52;4.90;99.90
1702;DHT22;848;48.354;10.064;2023-02-03T08:52:20;5.20;99.90
1702;DHT22;848;48.354;10.064;2023-02-03T08:54:47;5.20;99.90
1702;DHT22;848;48.354;10.064;2023-02-03T08:57:14;5.10;99.90
1702;DHT22;848;48.354;10.064;2023-02-03T08:59:43;5.10;99.90
1702;DHT22;848;48.354;10.064;2023-02-03T09:02:13;5.20;99.90
1702;DHT22;848;48.354;10.064;2023-02-03T09:04:43;5.20;99.90
1702;DHT22;848;48.354;10.064;2023-02-03T09:07:10;5.20;99.90
1702;DHT22;848;48.354;10.064;2023-02-03T09:09:39;5.30;99.90
1702;DHT22;848;48.354;10.064;2023-02-03T09:12:06;5.30;99.90
1702;DHT22;848;48.354;10.064;2023-02-03T09:14:33;5.30;99.90
1702;DHT22;848;48.354;10.064;2023-02-03T09:17:02;5.30;99.90
1702;DHT22;848;48.354;10.064;2023-02-03T09:19:30;5.20;99.90
1702;DHT22;848;48.354;10.064;2023-02-03T09:21:57;5.20;99.90
1702;DHT22;848;48.354;10.064;2023-02-03T09:24:24;5.20;99.90
1702;DHT22;848;48.354;10.064;2023-02-03T09:26:52;5.50;99.90
1702;DHT22;848;48.354;10.064;2023-02-03T09:29:19;5.40;99.90
1702;DHT22;848;48.354;10.064;2023-02-03T09:31:48;5.50;99.90
1702;DHT22;848;48.354;10.064;2023-02-03T09:34:17;5.50;99.90
1702;DHT22;848;48.354;10.064;2023-02-03T09:36:44;5.50;99.90
1702;DHT22;848;48.354;10.064;2023-02-03T09:39:14;5.60;99.90
1702;DHT22;848;48.354;10.064;2023-02-03T09:44:49;5.60;99.90
1702;DHT22;848;48.354;10.064;2023-02-03T09:47:22;5.60;99.90
1702;DHT22;848;48.354;10.064;2023-02-03T09:49:53;5.60;99.90
1702;DHT22;848;48.354;10.064;2023-02-03T09:52:23;5.60;99.90
1702;DHT22;848;48.354;10.064;2023-02-03T09:54:55;5.60;99.90
1702;DHT22;848;48.354;10.064;2023-02-03T09:57:26;5.70;99.90
1702;DHT22;848;48.354;10.064;2023-02-03T09:59:57;5.70;99.90
1702;DHT22;848;48.354;10.064;2023-02-03T10:02:41;5.70;99.90
1702;DHT22;848;48.354;10.064;2023-02-03T10:05:17;5.80;99.90
1702;DHT22;848;48.354;10.064;2023-02-03T10:07:53;5.70;99.90
1702;DHT22;848;48.354;10.064;2023-02-03T10:10:33;5.70;99.90
1702;DHT22;848;48.354;10.064;2023-02-03T10:13:11;5.70;99.90
1702;DHT22;848;48.354;10.064;2023-02-03T10:18:39;5.70;99.90
1702;DHT22;848;48.354;10.064;2023-02-03T10:21:12;5.80;99.90
1702;DHT22;848;48.354;10.064;2023-02-03T10:23:42;5.80;99.90
1702;DHT22;848;48.354;10.064;2023-02-03T10:26:15;5.70;99.90
1702;DHT22;848;48.354;10.064;2023-02-03T10:28:47;5.70;99.90
1702;DHT22;848;48.354;10.064;2023-02-03T10:31:20;5.80;99.90
1702;DHT22;848;48.354;10.064;2023-02-03T10:33:50;5.80;99.90
1702;DHT22;848;48.354;10.064;2023-02-03T10:36:20;5.80;99.90
1702;DHT22;848;48.354;10.064;2023-02-03T10:38:54;5.80;99.90
1702;DHT22;848;48.354;10.064;2023-02-03T10:41:22;5.70;99.90
1702;DHT22;848;48.354;10.064;2023-02-03T10:43:50;5.80;99.90
1702;DHT22;848;48.354;10.064;2023-02-03T10:46:25;5.80;99.90
1702;DHT22;848;48.354;10.064;2023-02-03T10:48:53;5.80;99.90
1702;DHT22;848;48.354;10.064;2023-02-03T10:51:22;5.90;99.90
1702;DHT22;848;48.354;10.064;2023-02-03T10:53:50;5.90;99.90
1702;DHT22;848;48.354;10.064;2023-02-03T10:56:20;6.00;99.90
1702;DHT22;848;48.354;10.064;2023-02-03T10:58:50;5.90;99.90
1702;DHT22;848;48.354;10.064;2023-02-03T11:01:22;5.90;99.90
1702;DHT22;848;48.354;10.064;2023-02-03T11:03:56;5.90;99.90
1702;DHT22;848;48.354;10.064;2023-02-03T11:06:24;5.90;99.90
1702;DHT22;848;48.354;10.064;2023-02-03T11:08:51;6.10;99.90
1702;DHT22;848;48.354;10.064;2023-02-03T11:11:23;5.90;99.90
1702;DHT22;848;48.354;10.064;2023-02-03T11:13:55;6.00;99.90
1702;DHT22;848;48.354;10.064;2023-02-03T11:16:37;6.00;99.90
1702;DHT22;848;48.354;10.064;2023-02-03T11:19:05;6.00;99.90
1702;DHT22;848;48.354;10.064;2023-02-03T11:21:42;6.00;99.90
1702;DHT22;848;48.354;10.064;2023-02-03T11:24:17;6.00;99.90
1702;DHT22;848;48.354;10.064;2023-02-03T11:26:48;6.10;99.90
1702;DHT22;848;48.354;10.064;2023-02-03T11:29:19;6.20;99.90
1702;DHT22;848;48.354;10.064;2023-02-03T11:31:51;6.50;99.90
1702;DHT22;848;48.354;10.064;2023-02-03T11:34:20;6.30;99.90
1702;DHT22;848;48.354;10.064;2023-02-03T11:36:50;6.30;99.90
1702;DHT22;848;48.354;10.064;2023-02-03T11:39:24;6.40;99.90
1702;DHT22;848;48.354;10.064;2023-02-03T11:41:52;6.30;99.90
1702;DHT22;848;48.354;10.064;2023-02-03T11:44:22;6.30;99.90
1702;DHT22;848;48.354;10.064;2023-02-03T11:46:55;6.40;99.90
1702;DHT22;848;48.354;10.064;2023-02-03T11:49:58;6.40;99.90
1702;DHT22;848;48.354;10.064;2023-02-03T11:52:57;6.50;99.90
1702;DHT22;848;48.354;10.064;2023-02-03T11:55:35;6.60;99.90
1702;DHT22;848;48.354;10.064;2023-02-03T11:58:34;6.50;99.90
1702;DHT22;848;48.354;10.064;2023-02-03T12:01:10;6.40;99.90
1702;DHT22;848;48.354;10.064;2023-02-03T12:03:59;6.60;99.90
1702;DHT22;848;48.354;10.064;2023-02-03T12:06:39;6.50;99.90
1702;DHT22;848;48.354;10.064;2023-02-03T12:09:24;6.60;99.90
1702;DHT22;848;48.354;10.064;2023-02-03T12:12:11;6.50;99.90
1702;DHT22;848;48.354;10.064;2023-02-03T12:14:51;6.50;99.90
1702;DHT22;848;48.354;10.064;2023-02-03T12:17:39;6.50;99.90
1702;DHT22;848;48.354;10.064;2023-02-03T12:20:43;6.50;99.90
1702;DHT22;848;48.354;10.064;2023-02-03T12:23:25;6.60;99.90
1702;DHT22;848;48.354;10.064;2023-02-03T12:26:04;6.70;99.90
1702;DHT22;848;48.354;10.064;2023-02-03T12:28:45;6.70;99.90
1702;DHT22;848;48.354;10.064;2023-02-03T12:31:19;6.70;99.90
1702;DHT22;848;48.354;10.064;2023-02-03T12:33:53;6.70;99.90
1702;DHT22;848;48.354;10.064;2023-02-03T12:36:26;6.70;99.90
1702;DHT22;848;48.354;10.064;2023-02-03T12:38:58;6.70;99.90
1702;DHT22;848;48.354;10.064;2023-02-03T12:41:29;6.70;99.90
1702;DHT22;848;48.354;10.064;2023-02-03T12:43:59;6.80;99.90
1702;DHT22;848;48.354;10.064;2023-02-03T12:46:31;6.80;99.90
1702;DHT22;848;48.354;10.064;2023-02-03T12:49:08;6.90;99.90
1702;DHT22;848;48.354;10.064;2023-02-03T12:51:40;7.00;99.90
1702;DHT22;848;48.354;10.064;2023-02-03T12:54:20;7.00;99.90
1702;DHT22;848;48.354;10.064;2023-02-03T12:56:50;7.00;99.90
1702;DHT22;848;48.354;10.064;2023-02-03T12:59:21;7.10;99.90
1702;DHT22;848;48.354;10.064;2023-02-03T13:01:52;7.10;99.90
1702;DHT22;848;48.354;10.064;2023-02-03T13:04:26;7.10;99.90
1702;DHT22;848;48.354;10.064;2023-02-03T13:07:01;7.20;99.90
1702;DHT22;848;48.354;10.064;2023-02-03T13:09:35;7.20;99.90
1702;DHT22;848;48.354;10.064;2023-02-03T13:12:08;7.30;99.90
1702;DHT22;848;48.354;10.064;2023-02-03T13:14:40;7.20;99.90
1702;DHT22;848;48.354;10.064;2023-02-03T13:17:14;7.30;99.90
1702;DHT22;848;48.354;10.064;2023-02-03T13:19:47;7.20;99.90
1702;DHT22;848;48.354;10.064;2023-02-03T13:22:16;7.20;99.90
1702;DHT22;848;48.354;10.064;2023-02-03T13:24:46;7.10;99.90
1702;DHT22;848;48.354;10.064;2023-02-03T13:27:35;7.20;99.90
1702;DHT22;848;48.354;10.064;2023-02-03T13:30:28;7.30;99.90
1702;DHT22;848;48.354;10.064;2023-02-03T13:33:30;7.20;99.90
1702;DHT22;848;48.354;10.064;2023-02-03T13:36:10;7.30;99.90
1702;DHT22;848;48.354;10.064;2023-02-03T13:41:48;7.20;99.90
1702;DHT22;848;48.354;10.064;2023-02-03T13:44:20;7.10;99.90
1702;DHT22;848;48.354;10.064;2023-02-03T13:46:50;7.10;99.90
1702;DHT22;848;48.354;10.064;2023-02-03T13:49:22;7.00;99.90
1702;DHT22;848;48.354;10.064;2023-02-03T13:51:50;7.00;99.90
1702;DHT22;848;48.354;10.064;2023-02-03T13:54:25;7.10;99.90
1702;DHT22;848;48.354;10.064;2023-02-03T13:56:56;7.10;99.90
1702;DHT22;848;48.354;10.064;2023-02-03T13:59:37;7.20;99.90
1702;DHT22;848;48.354;10.064;2023-02-03T14:02:29;7.20;99.90
1702;DHT22;848;48.354;10.064;2023-02-03T14:04:58;7.10;99.90
1702;DHT22;848;48.354;10.064;2023-02-03T14:07:30;7.10;99.90
1702;DHT22;848;48.354;10.064;2023-02-03T14:10:19;7.20;99.90
1702;DHT22;848;48.354;10.064;2023-02-03T14:12:55;7.10;99.90
1702;DHT22;848;48.354;10.064;2023-02-03T14:15:32;7.10;99.90
1702;DHT22;848;48.354;10.064;2023-02-03T14:18:02;7.10;99.90
1702;DHT22;848;48.354;10.064;2023-02-03T14:20:48;7.10;99.90
1702;DHT22;848;48.354;10.064;2023-02-03T14:23:21;7.10;99.90
1702;DHT22;848;48.354;10.064;2023-02-03T14:25:57;7.20;99.90
1702;DHT22;848;48.354;10.064;2023-02-03T14:28:28;7.00;99.90
1702;DHT22;848;48.354;10.064;2023-02-03T14:31:09;7.10;99.90
1702;DHT22;848;48.354;10.064;2023-02-03T14:33:51;7.00;99.90
1702;DHT22;848;48.354;10.064;2023-02-03T14:36:33;7.00;99.90
1702;DHT22;848;48.354;10.064;2023-02-03T14:39:04;7.00;99.90
1702;DHT22;848;48.354;10.064;2023-02-03T14:41:54;7.00;99.90
1702;DHT22;848;48.354;10.064;2023-02-03T14:44:30;6.90;99.90
1702;DHT22;848;48.354;10.064;2023-02-03T14:47:09;6.90;99.90
1702;DHT22;848;48.354;10.064;2023-02-03T14:49:49;6.90;99.90
1702;DHT22;848;48.354;10.064;2023-02-03T14:52:42;6.90;99.90
1702;DHT22;848;48.354;10.064;2023-02-03T14:55:24;7.00;99.90
1702;DHT22;848;48.354;10.064;2023-02-03T14:57:59;6.90;99.90
1702;DHT22;848;48.354;10.064;2023-02-03T15:00:30;7.00;99.90
1702;DHT22;848;48.354;10.064;2023-02-03T15:03:20;6.90;99.90
1702;DHT22;848;48.354;10.064;2023-02-03T15:05:49;6.90;99.90
1702;DHT22;848;48.354;10.064;2023-02-03T15:08:36;7.00;99.90
1702;DHT22;848;48.354;10.064;2023-02-03T15:11:26;6.80;99.90
1702;DHT22;848;48.354;10.064;2023-02-03T15:13:56;6.90;99.90
1702;DHT22;848;48.354;10.064;2023-02-03T15:16:24;7.10;99.90
1702;DHT22;848;48.354;10.064;2023-02-03T15:18:57;6.80;99.90
1702;DHT22;848;48.354;10.064;2023-02-03T15:21:25;6.90;99.90
1702;DHT22;848;48.354;10.064;2023-02-03T15:23:53;6.80;99.90
1702;DHT22;848;48.354;10.064;2023-02-03T15:26:21;6.70;99.90
1702;DHT22;848;48.354;10.064;2023-02-03T15:28:57;6.70;99.90
1702;DHT22;848;48.354;10.064;2023-02-03T15:31:28;6.80;99.90
1702;DHT22;848;48.354;10.064;2023-02-03T15:34:02;6.70;99.90
1702;DHT22;848;48.354;10.064;2023-02-03T15:36:36;6.70;99.90
1702;DHT22;848;48.354;10.064;2023-02-03T15:39:10;6.80;99.90
1702;DHT22;848;48.354;10.064;2023-02-03T15:41:39;6.80;99.90
1702;DHT22;848;48.354;10.064;2023-02-03T15:44:12;6.80;99.90
1702;DHT22;848;48.354;10.064;2023-02-03T15:46:46;6.90;99.90
1702;DHT22;848;48.354;10.064;2023-02-03T15:49:19;6.80;99.90
1702;DHT22;848;48.354;10.064;2023-02-03T15:51:51;6.80;99.90
1702;DHT22;848;48.354;10.064;2023-02-03T15:54:22;6.80;99.90
1702;DHT22;848;48.354;10.064;2023-02-03T15:56:57;6.70;99.90
1702;DHT22;848;48.354;10.064;2023-02-03T15:59:31;6.70;99.90
1702;DHT22;848;48.354;10.064;2023-02-03T16:02:00;6.70;99.90
1702;DHT22;848;48.354;10.064;2023-02-03T16:04:29;6.80;99.90
1702;DHT22;848;48.354;10.064;2023-02-03T16:06:57;6.80;99.90
1702;DHT22;848;48.354;10.064;2023-02-03T16:09:29;6.70;99.90
1702;DHT22;848;48.354;10.064;2023-02-03T16:12:16;6.70;99.90
1702;DHT22;848;48.354;10.064;2023-02-03T16:14:44;6.60;99.90
1702;DHT22;848;48.354;10.064;2023-02-03T16:17:24;6.60;99.90
1702;DHT22;848;48.354;10.064;2023-02-03T16:20:18;6.70;99.90
1702;DHT22;848;48.354;10.064;2023-02-03T16:22:58;6.60;99.90
1702;DHT22;848;48.354;10.064;2023-02-03T16:25:27;6.70;99.90
1702;DHT22;848;48.354;10.064;2023-02-03T16:27:55;6.60;99.90
1702;DHT22;848;48.354;10.064;2023-02-03T16:30:53;6.50;99.90
1702;DHT22;848;48.354;10.064;2023-02-03T16:33:38;6.50;99.90
1702;DHT22;848;48.354;10.064;2023-02-03T16:36:22;6.50;99.90
1702;DHT22;848;48.354;10.064;2023-02-03T16:39:10;6.50;99.90
1702;DHT22;848;48.354;10.064;2023-02-03T16:41:56;6.70;99.90
1702;DHT22;848;48.354;10.064;2023-02-03T16:44:41;6.50;99.90
1702;DHT22;848;48.354;10.064;2023-02-03T16:47:28;6.50;99.90
1702;DHT22;848;48.354;10.064;2023-02-03T16:50:14;6.50;99.90
1702;DHT22;848;48.354;10.064;2023-02-03T16:52:59;6.40;99.90
1702;DHT22;848;48.354;10.064;2023-02-03T16:55:26;6.40;99.90
1702;DHT22;848;48.354;10.064;2023-02-03T16:57:53;6.40;99.90